Time;durP1;ratioP1;P1;durP2;ratioP2;P2;SDS_P1;SDS_P2;PMS_P1;PMS_P2;Temp;Humidity;BMP_temperature;BMP_pressure;BME280_temperature;BME280_humidity;BME280_pressure;Samples;Min_cycle;Max_cycle;Signal;HPM_P1;HPM_P2
2023/03/14 00:02:13;;;;;;;1.80;1.60;;;;;;;12.54;83.14;98721.34;4824846;29;20435;-69
2023/03/14 00:04:45;;;;;;;2.77;1.60;;;;;;;12.45;83.30;98717.50;4826118;29;20449;-68
2023/03/14 00:07:16;;;;;;;2.27;1.70;;;;;;;12.33;83.78;98716.94;4824760;29;20990;-68
2023/03/14 00:09:51;;;;;;;2.90;1.27;;;;;;;12.15;84.77;98714.72;4824619;29;20416;-68
2023/03/14 00:12:26;;;;;;;2.70;1.30;;;;;;;12.04;85.46;98699.47;4825820;29;20456;-68
2023/03/14 00:14:59;;;;;;;2.40;1.70;;;;;;;12.14;85.10;98715.78;4827749;29;20419;-69
2023/03/14 00:17:29;;;;;;;2.50;1.33;;;;;;;12.35;83.99;98701.22;4833723;29;20462;-69
2023/03/14 00:20:04;;;;;;;1.73;1.00;;;;;;;12.32;83.69;98682.75;4824006;29;20946;-68
2023/03/14 00:22:35;;;;;;;1.70;1.40;;;;;;;12.13;84.55;98687.03;4837585;29;20987;-68
2023/03/14 00:25:11;;;;;;;3.90;1.40;;;;;;;12.04;85.12;98678.63;4839561;29;20547;-68
2023/03/14 00:27:41;;;;;;;1.33;1.00;;;;;;;11.94;85.63;98672.31;4824154;29;20477;-67
2023/03/14 00:30:15;;;;;;;1.90;1.40;;;;;;;11.86;86.10;98664.72;4839626;29;20467;-68
2023/03/14 00:32:45;;;;;;;5.80;3.10;;;;;;;11.94;85.79;98666.91;4825307;29;20926;-67
2023/03/14 00:35:18;;;;;;;2.00;1.20;;;;;;;11.88;85.79;98655.22;4823936;29;20438;-67
2023/03/14 00:37:48;;;;;;;2.00;1.03;;;;;;;11.90;85.98;98646.84;4823721;29;20469;-69
2023/03/14 00:40:20;;;;;;;4.20;1.60;;;;;;;11.90;86.05;98636.00;4823402;29;20434;-68
2023/03/14 00:42:51;;;;;;;1.10;0.83;;;;;;;11.82;86.42;98626.47;4825314;29;20429;-67
2023/03/14 00:45:22;;;;;;;1.93;1.33;;;;;;;11.92;86.49;98641.94;4826760;29;20947;-68
2023/03/14 00:47:54;;;;;;;2.57;1.80;;;;;;;11.97;86.12;98645.50;4838724;29;20737;-68
2023/03/14 00:50:27;;;;;;;3.60;1.57;;;;;;;11.97;86.16;98644.69;4835938;29;20792;-68
2023/03/14 00:53:00;;;;;;;1.83;1.10;;;;;;;11.88;86.68;98633.53;4826595;29;20909;-69
2023/03/14 00:55:33;;;;;;;1.60;1.40;;;;;;;11.96;86.52;98643.03;4826818;29;20547;-69
2023/03/14 00:58:03;;;;;;;2.63;1.50;;;;;;;11.91;86.71;98635.72;4830194;29;20592;-69
2023/03/14 01:00:37;;;;;;;2.10;1.53;;;;;;;11.97;86.30;98617.56;4834369;29;20471;-68
2023/03/14 01:03:09;;;;;;;3.43;1.70;;;;;;;11.84;87.11;98609.97;4848760;29;20558;-69
2023/03/14 01:05:40;;;;;;;1.40;0.90;;;;;;;11.95;86.91;98600.78;4838781;29;20513;-68
2023/03/14 01:08:13;;;;;;;2.03;0.90;;;;;;;11.82;87.19;98603.97;4838634;29;20546;-69
2023/03/14 01:10:45;;;;;;;1.60;1.00;;;;;;;11.81;87.47;98595.06;4823524;29;20529;-68
2023/03/14 01:13:16;;;;;;;5.93;2.20;;;;;;;11.71;87.90;98597.69;4839076;29;20438;-68
2023/03/14 01:15:47;;;;;;;1.73;1.17;;;;;;;11.73;88.02;98607.22;4839619;29;20440;-69
2023/03/14 01:18:18;;;;;;;5.40;1.50;;;;;;;11.68;88.55;98620.69;4823414;29;20495;-68
2023/03/14 01:20:50;;;;;;;1.53;1.00;;;;;;;11.61;88.91;98622.84;4838837;29;20452;-67
2023/03/14 01:23:20;;;;;;;1.80;1.30;;;;;;;11.66;88.94;98633.72;4824732;29;20447;-68
2023/03/14 01:25:53;;;;;;;1.73;1.10;;;;;;;11.60;89.08;98661.84;4817207;29;20886;-68
2023/03/14 01:28:25;;;;;;;2.70;1.30;;;;;;;11.69;88.75;98672.97;4823425;29;20453;-68
2023/03/14 01:30:55;;;;;;;1.60;1.00;;;;;;;11.68;88.59;98664.03;4842785;29;20443;-68
2023/03/14 01:33:29;;;;;;;1.57;1.00;;;;;;;11.66;88.52;98671.63;4841979;29;20426;-67
2023/03/14 01:35:59;;;;;;;2.60;1.60;;;;;;;11.65;88.93;98680.00;4824683;29;20969;-68
2023/03/14 01:38:34;;;;;;;3.23;1.47;;;;;;;11.73;88.66;98683.06;4828282;29;20469;-67
2023/03/14 01:41:11;;;;;;;1.73;1.10;;;;;;;11.71;88.70;98671.63;4823474;29;20436;-66
2023/03/14 01:43:41;;;;;;;2.50;1.10;;;;;;;11.68;88.59;98674.88;4823525;29;20449;-68
2023/03/14 01:46:33;;;;;;;4.50;1.60;;;;;;;11.71;88.28;98679.75;4824625;29;20490;-68
2023/03/14 01:49:15;;;;;;;1.30;0.90;;;;;;;11.70;88.47;98693.59;4821544;29;20441;-68
2023/03/14 01:51:57;;;;;;;1.50;1.10;;;;;;;11.71;88.35;98696.00;4811916;29;20449;-68
2023/03/14 01:54:32;;;;;;;1.43;1.00;;;;;;;11.71;88.46;98701.44;4823846;29;20467;-68
2023/03/14 01:57:11;;;;;;;1.60;1.23;;;;;;;11.65;88.71;98694.38;4823907;29;20549;-68
2023/03/14 01:59:47;;;;;;;1.40;1.07;;;;;;;11.61;88.97;98684.31;4837828;29;20441;-67
2023/03/14 02:02:18;;;;;;;2.07;1.20;;;;;;;11.57;89.29;98678.59;4824560;29;20532;-68
2023/03/14 02:04:55;;;;;;;2.50;1.40;;;;;;;11.52;89.71;98665.03;4824817;29;20525;-68
2023/03/14 02:07:38;;;;;;;2.10;1.10;;;;;;;11.46;90.00;98659.84;4834996;29;20491;-68
2023/03/14 02:10:21;;;;;;;1.90;1.20;;;;;;;11.51;89.98;98658.00;4824405;29;20905;-69
2023/03/14 02:12:57;;;;;;;1.10;0.90;;;;;;;11.49;90.01;98657.44;4843859;29;21120;-67
2023/03/14 02:15:51;;;;;;;2.70;1.27;;;;;;;11.46;90.41;98655.25;4828346;29;20426;-68
2023/03/14 02:18:37;;;;;;;2.20;1.07;;;;;;;11.49;89.85;98657.44;4830826;29;20901;-68
2023/03/14 02:21:29;;;;;;;2.90;1.33;;;;;;;11.53;90.01;98655.00;4828199;29;20566;-69
2023/03/14 02:24:14;;;;;;;1.10;0.70;;;;;;;11.59;89.44;98649.38;4823685;29;20550;-69
2023/03/14 02:27:15;;;;;;;1.93;1.07;;;;;;;11.59;89.39;98638.53;4840398;29;20976;-67
2023/03/14 02:29:52;;;;;;;1.53;1.10;;;;;;;11.59;89.15;98643.94;4845952;29;20902;-68
2023/03/14 02:32:28;;;;;;;2.80;1.13;;;;;;;11.63;89.30;98647.75;4835053;29;20446;-69
2023/03/14 02:35:02;;;;;;;1.03;0.80;;;;;;;11.62;89.22;98639.88;4837794;29;20975;-69
2023/03/14 02:37:38;;;;;;;2.70;1.20;;;;;;;11.71;88.29;98628.28;4838298;29;21014;-68
2023/03/14 02:40:10;;;;;;;1.37;0.97;;;;;;;11.73;88.43;98645.13;4827282;29;20441;-68
2023/03/14 02:42:44;;;;;;;1.50;1.30;;;;;;;11.68;88.64;98633.41;4816415;29;20534;-67
2023/03/14 02:45:38;;;;;;;4.63;0.93;;;;;;;11.71;88.26;98636.41;4818897;29;20903;-67
2023/03/14 02:48:18;;;;;;;2.60;0.93;;;;;;;11.67;88.12;98627.19;4828430;29;20518;-67
2023/03/14 02:50:53;;;;;;;1.80;0.90;;;;;;;11.75;87.95;98615.91;4837579;29;20464;-67
2023/03/14 02:53:28;;;;;;;2.70;1.00;;;;;;;11.63;88.46;98627.97;4836163;29;20541;-67
2023/03/14 02:56:03;;;;;;;1.40;1.10;;;;;;;11.69;87.80;98616.91;4823864;29;20416;-66
2023/03/14 02:58:37;;;;;;;2.80;0.90;;;;;;;11.53;88.25;98606.25;4837310;29;20478;-68
2023/03/14 03:01:21;;;;;;;1.20;0.90;;;;;;;11.45;88.90;98593.22;4821965;29;20433;-68
2023/03/14 03:03:51;;;;;;;3.23;1.13;;;;;;;11.42;89.05;98589.16;4832660;29;20436;-69
2023/03/14 03:06:23;;;;;;;2.60;0.90;;;;;;;11.42;88.98;98582.94;4821880;29;20933;-68
2023/03/14 03:08:55;;;;;;;2.40;1.10;;;;;;;11.37;89.25;98574.78;4833915;29;20459;-68
2023/03/14 03:11:25;;;;;;;3.33;1.30;;;;;;;11.34;89.31;98559.88;4839968;29;20472;-69
2023/03/14 03:13:58;;;;;;;1.77;1.00;;;;;;;11.34;89.22;98554.44;4840353;29;20438;-69
2023/03/14 03:16:30;;;;;;;1.30;0.90;;;;;;;11.32;89.14;98548.50;4828846;29;20479;-67
2023/03/14 03:19:02;;;;;;;1.33;1.10;;;;;;;11.25;89.37;98547.91;4822100;29;20460;-68
2023/03/14 03:21:34;;;;;;;1.10;0.83;;;;;;;11.27;89.39;98548.47;4828204;29;20443;-68
2023/03/14 03:24:06;;;;;;;3.73;1.20;;;;;;;11.25;89.31;98547.91;4823056;29;20465;-67
2023/03/14 03:26:37;;;;;;;2.47;1.27;;;;;;;11.26;89.03;98549.56;4824775;29;20414;-67
2023/03/14 03:29:12;;;;;;;5.37;1.20;;;;;;;11.23;89.37;98553.59;4841276;29;20456;-68
2023/03/14 03:31:45;;;;;;;1.63;0.90;;;;;;;11.20;89.20;98564.13;4822312;29;20434;-67
2023/03/14 03:34:18;;;;;;;1.30;0.70;;;;;;;11.20;89.42;98569.53;4821969;29;20573;-67
2023/03/14 03:36:51;;;;;;;1.03;0.70;;;;;;;11.17;89.59;98575.50;4837062;29;20498;-67
2023/03/14 03:39:22;;;;;;;2.20;1.23;;;;;;;11.18;89.28;98574.41;4836868;29;20438;-68
2023/03/14 03:41:52;;;;;;;1.20;0.87;;;;;;;11.18;89.47;98561.69;4835356;29;20439;-67
2023/03/14 03:44:24;;;;;;;2.40;1.40;;;;;;;11.15;89.50;98572.22;4806929;29;20467;-68
2023/03/14 03:46:57;;;;;;;1.40;0.90;;;;;;;11.19;88.78;98568.72;4823203;29;20514;-68
2023/03/14 03:49:31;;;;;;;3.57;1.30;;;;;;;11.04;89.77;98562.41;4822828;29;20848;-69
2023/03/14 03:52:02;;;;;;;1.73;0.80;;;;;;;11.05;89.51;98555.91;4825354;29;20451;-69
2023/03/14 03:54:33;;;;;;;1.50;1.03;;;;;;;10.99;89.58;98556.97;4839204;29;20938;-67
2023/03/14 03:57:04;;;;;;;1.30;0.93;;;;;;;10.98;89.47;98550.75;4825077;29;20440;-68
2023/03/14 03:59:41;;;;;;;1.10;0.80;;;;;;;11.08;89.36;98556.22;4827386;29;20557;-68
2023/03/14 04:02:11;;;;;;;1.83;1.00;;;;;;;11.09;88.85;98551.59;4835709;29;20442;-68
2023/03/14 04:04:43;;;;;;;2.43;1.73;;;;;;;11.07;88.76;98560.00;4809677;29;20859;-68
2023/03/14 04:07:14;;;;;;;1.70;0.90;;;;;;;11.01;88.78;98565.63;4823615;29;20451;-68
2023/03/14 04:09:47;;;;;;;5.03;2.70;;;;;;;11.05;88.78;98577.56;4844265;29;20532;-69
2023/03/14 04:12:33;;;;;;;1.67;0.97;;;;;;;10.89;89.34;98538.78;4824179;29;20457;-67
2023/03/14 04:15:11;;;;;;;1.87;0.90;;;;;;;10.97;88.86;98548.31;4830146;29;20957;-68
2023/03/14 04:17:47;;;;;;;2.03;1.23;;;;;;;10.99;89.07;98556.97;4819659;29;20522;-67
2023/03/14 04:20:18;;;;;;;1.73;0.87;;;;;;;10.96;88.88;98552.06;4839343;29;20487;-67
2023/03/14 04:22:49;;;;;;;1.60;0.90;;;;;;;10.99;88.63;98555.06;4827715;29;20558;-69
2023/03/14 04:25:23;;;;;;;2.33;1.20;;;;;;;10.95;88.48;98548.56;4824506;29;20473;-67
2023/03/14 04:28:00;;;;;;;3.03;1.10;;;;;;;10.92;88.67;98545.56;4839282;29;20443;-69
2023/03/14 04:30:36;;;;;;;1.20;0.77;;;;;;;10.93;88.19;98544.50;4837066;29;20840;-68
2023/03/14 04:33:17;;;;;;;2.07;1.00;;;;;;;10.95;87.89;98539.63;4810511;29;21033;-68
2023/03/14 04:35:56;;;;;;;1.73;1.00;;;;;;;10.96;87.87;98535.84;4824311;29;21000;-68
2023/03/14 04:38:28;;;;;;;2.13;1.40;;;;;;;10.98;87.50;98531.00;4823860;29;20465;-67
2023/03/14 04:40:59;;;;;;;1.67;1.23;;;;;;;11.06;86.61;98520.47;4824122;29;20512;-68
2023/03/14 04:43:34;;;;;;;1.57;1.00;;;;;;;11.08;86.54;98520.22;4846914;29;20429;-68
2023/03/14 04:46:12;;;;;;;3.37;1.30;;;;;;;11.01;86.74;98517.75;4825236;29;20431;-68
2023/03/14 04:48:47;;;;;;;1.43;1.00;;;;;;;11.02;86.31;98505.84;4817424;29;20517;-67
2023/03/14 04:51:23;;;;;;;1.40;1.00;;;;;;;11.02;86.34;98505.84;4838978;29;20429;-66
2023/03/14 04:53:53;;;;;;;2.50;1.63;;;;;;;10.98;86.73;98498.53;4842457;29;20559;-67
2023/03/14 04:56:23;;;;;;;1.07;0.77;;;;;;;10.99;86.38;98497.47;4824630;29;20446;-69
2023/03/14 04:58:54;;;;;;;2.00;1.20;;;;;;;10.98;85.96;98485.81;4826994;29;20961;-68
2023/03/14 05:01:27;;;;;;;1.40;1.00;;;;;;;11.00;86.05;98499.06;4812971;29;20434;-68
2023/03/14 05:04:12;;;;;;;1.70;1.20;;;;;;;10.96;86.13;98511.50;4825027;29;20428;-68
2023/03/14 05:06:59;;;;;;;1.83;1.30;;;;;;;10.93;86.19;98510.13;4833801;29;20490;-69
2023/03/14 05:09:38;;;;;;;1.50;1.10;;;;;;;10.92;86.26;98513.09;4835813;29;20440;-68
2023/03/14 05:12:44;;;;;;;1.60;1.40;;;;;;;11.05;85.20;98509.91;4817784;29;20420;-68
2023/03/14 05:15:34;;;;;;;1.67;1.07;;;;;;;10.95;85.82;98493.63;4823670;29;20593;-68
2023/03/14 05:18:26;;;;;;;1.50;1.20;;;;;;;11.09;85.00;98492.06;4813842;29;20894;-69
2023/03/14 05:21:36;;;;;;;1.67;1.10;;;;;;;11.04;84.85;98502.88;4824846;29;20466;-68
2023/03/14 05:24:22;;;;;;;4.63;1.20;;;;;;;10.96;85.34;98487.13;4824543;29;20583;-68
2023/03/14 05:27:08;;;;;;;1.53;1.23;;;;;;;10.93;85.50;98490.38;4824411;29;20516;-67
2023/03/14 05:29:58;;;;;;;2.33;1.37;;;;;;;11.02;84.52;98486.91;4827502;29;20548;-68
2023/03/14 05:32:59;;;;;;;1.60;1.10;;;;;;;11.07;84.43;98489.66;4838539;29;20805;-68
2023/03/14 05:36:13;;;;;;;1.30;1.00;;;;;;;11.06;83.97;98476.38;4809935;29;20979;-68
2023/03/14 05:39:11;;;;;;;4.03;1.10;;;;;;;11.04;83.85;98476.63;4819364;29;20453;-68
2023/03/14 05:42:17;;;;;;;3.43;1.40;;;;;;;11.09;83.31;98475.81;4824502;29;20438;-68
2023/03/14 05:45:09;;;;;;;4.03;1.10;;;;;;;11.09;83.58;98482.06;4809510;29;20471;-68
2023/03/14 05:48:06;;;;;;;2.80;1.23;;;;;;;11.13;83.06;98487.78;4823292;29;20462;-68
2023/03/14 05:51:40;;;;;;;3.10;1.50;;;;;;;11.14;82.71;98489.38;4823292;29;21140;-68
2023/03/14 05:54:24;;;;;;;2.87;1.40;;;;;;;11.12;82.58;98475.31;4820498;29;20451;-67
2023/03/14 05:57:21;;;;;;;1.80;1.47;;;;;;;11.07;82.62;98476.13;4824814;29;20462;-67
2023/03/14 06:01:14;;;;;;;1.37;1.00;;;;;;;11.27;81.51;98483.50;4822770;29;20487;-68
2023/03/14 06:04:03;;;;;;;1.40;0.80;;;;;;;11.17;81.30;98484.28;4837532;29;20464;-69
2023/03/14 06:06:33;;;;;;;2.07;1.37;;;;;;;11.27;80.74;98476.19;4837026;29;20478;-67
2023/03/14 06:09:11;;;;;;;3.03;1.53;;;;;;;11.29;80.42;98484.84;4827304;29;20479;-68
2023/03/14 06:11:45;;;;;;;2.17;1.40;;;;;;;11.32;80.57;98478.94;4838630;29;20463;-70
2023/03/14 06:14:16;;;;;;;1.90;1.40;;;;;;;11.34;80.09;98478.66;4829667;29;20455;-67
2023/03/14 06:16:50;;;;;;;2.20;1.23;;;;;;;11.34;79.90;98476.75;4822794;29;20462;-66
2023/03/14 06:19:23;;;;;;;3.07;1.50;;;;;;;11.42;79.06;98475.44;4822273;29;20454;-68
2023/03/14 06:22:10;;;;;;;2.33;1.20;;;;;;;11.34;79.36;98467.81;4822630;29;20816;-67
2023/03/14 06:24:47;;;;;;;2.03;1.20;;;;;;;11.53;78.56;98460.84;4838569;29;20529;-70
2023/03/14 06:27:23;;;;;;;3.27;1.67;;;;;;;11.52;78.15;98477.38;4824948;29;20812;-67
2023/03/14 06:33:47;;;;;;;3.23;1.57;;;;;;;11.65;77.46;98480.38;4836896;29;20856;-67
2023/03/14 06:36:22;;;;;;;6.17;2.80;;;;;;;11.66;76.97;98481.19;4822680;29;20540;-69
2023/03/14 06:38:55;;;;;;;2.27;1.57;;;;;;;11.70;76.49;98472.25;4838431;29;20459;-67
2023/03/14 06:41:28;;;;;;;2.27;1.63;;;;;;;11.79;76.30;98475.28;4826448;29;20450;-69
2023/03/14 06:44:04;;;;;;;9.60;1.80;;;;;;;11.85;75.86;98481.53;4837637;29;20559;-68
2023/03/14 06:46:38;;;;;;;3.93;1.47;;;;;;;11.90;75.15;98493.19;4824331;29;20461;-68
2023/03/14 06:49:09;;;;;;;5.40;2.20;;;;;;;11.93;75.10;98497.25;4809386;29;20466;-67
2023/03/14 06:51:42;;;;;;;3.33;1.67;;;;;;;12.05;74.63;98505.97;4840124;29;20467;-67
2023/03/14 06:54:14;;;;;;;5.70;2.00;;;;;;;12.18;73.58;98500.81;4833327;29;20447;-68
2023/03/14 06:56:47;;;;;;;3.27;1.60;;;;;;;12.20;73.37;98500.53;4822545;29;20438;-68
2023/03/14 06:59:20;;;;;;;3.73;1.50;;;;;;;12.38;72.83;98516.28;4822463;29;20475;-67
2023/03/14 07:01:51;;;;;;;2.37;1.63;;;;;;;12.35;72.47;98507.84;4823358;29;20804;-69
2023/03/14 07:04:22;;;;;;;7.90;1.60;;;;;;;12.42;71.78;98500.25;4822678;29;20441;-70
2023/03/14 07:06:53;;;;;;;4.57;1.67;;;;;;;12.70;71.09;98507.00;4834791;29;20559;-70
2023/03/14 07:09:24;;;;;;;3.07;1.73;;;;;;;12.79;70.52;98519.75;4819720;29;20431;-69
2023/03/14 07:12:03;;;;;;;4.43;1.63;;;;;;;12.79;69.97;98516.22;4829808;29;20850;-70
2023/03/14 07:14:35;;;;;;;2.57;1.40;;;;;;;12.55;70.88;98524.13;4835429;29;20430;-68
2023/03/14 07:17:05;;;;;;;3.53;1.47;;;;;;;12.51;71.23;98523.84;4821824;29;21026;-68
2023/03/14 07:19:37;;;;;;;3.73;1.63;;;;;;;12.42;71.53;98528.19;4821603;29;20472;-68
2023/03/14 07:22:10;;;;;;;2.83;1.77;;;;;;;12.25;72.09;98519.50;4829565;29;20453;-68
2023/03/14 07:24:41;;;;;;;3.20;1.47;;;;;;;12.23;72.64;98524.41;4824152;29;20453;-73
2023/03/14 07:27:14;;;;;;;7.33;1.80;;;;;;;12.13;72.84;98530.63;4822256;29;20875;-70
2023/03/14 07:29:44;;;;;;;4.83;1.87;;;;;;;12.16;72.41;98527.38;4812538;29;20443;-70
2023/03/14 07:32:15;;;;;;;4.13;2.00;;;;;;;12.13;73.08;98524.38;4844905;29;20547;-70
2023/03/14 07:34:45;;;;;;;5.43;2.33;;;;;;;12.25;72.82;98535.78;4829268;29;20433;-70
2023/03/14 07:37:16;;;;;;;4.70;1.83;;;;;;;12.28;72.25;98532.53;4843967;29;20475;-71
2023/03/14 07:39:53;;;;;;;3.80;1.30;;;;;;;12.37;72.19;98538.22;4831965;29;20457;-72
2023/03/14 07:42:35;;;;;;;4.03;1.67;;;;;;;12.37;71.97;98539.06;4847592;29;20434;-73
2023/03/14 07:45:30;;;;;;;2.13;1.53;;;;;;;12.35;72.13;98538.50;4824801;29;20960;-71
2023/03/14 07:48:01;;;;;;;3.17;1.13;;;;;;;12.35;72.27;98537.69;4824452;29;20494;-72
2023/03/14 07:50:32;;;;;;;4.03;1.47;;;;;;;12.32;72.33;98540.94;4837097;29;20524;-71
2023/03/14 07:53:03;;;;;;;3.30;1.50;;;;;;;12.40;72.06;98554.78;4846481;29;20448;-72
2023/03/14 07:55:33;;;;;;;3.00;1.63;;;;;;;12.39;72.13;98550.41;4850727;29;20456;-72
2023/03/14 07:58:07;;;;;;;4.20;1.30;;;;;;;12.43;72.22;98548.81;4814891;29;20891;-72
2023/03/14 08:00:40;;;;;;;6.63;2.70;;;;;;;12.63;71.46;98529.81;4844624;29;20479;-71
2023/03/14 08:03:13;;;;;;;3.60;1.67;;;;;;;12.91;70.13;98538.47;4829355;29;20545;-72
2023/03/14 08:05:45;;;;;;;5.77;1.60;;;;;;;13.13;69.47;98530.03;4827865;29;20925;-71
2023/03/14 08:08:16;;;;;;;5.57;1.50;;;;;;;13.30;68.90;98528.63;4832390;29;20455;-71
2023/03/14 08:10:48;;;;;;;4.57;1.87;;;;;;;13.37;67.71;98529.13;4828924;29;20414;-71
2023/03/14 08:13:49;;;;;;;3.27;1.43;;;;;;;13.35;67.68;98519.66;4835075;29;20447;-71
2023/03/14 08:16:20;;;;;;;9.47;4.10;;;;;;;13.48;67.88;98517.16;4828622;29;20545;-72
2023/03/14 08:18:51;;;;;;;6.43;2.13;;;;;;;13.69;66.79;98519.78;4842435;29;20476;-71
2023/03/14 08:21:22;;;;;;;6.37;1.60;;;;;;;14.06;65.34;98520.09;4849278;29;20463;-70
2023/03/14 08:23:53;;;;;;;2.53;1.17;;;;;;;14.10;65.32;98521.16;4844662;29;20443;-72
2023/03/14 08:26:23;;;;;;;5.00;2.70;;;;;;;14.25;64.44;98517.50;4830580;29;20510;-72
2023/03/14 08:29:43;;;;;;;3.57;1.30;;;;;;;14.10;64.60;98523.88;4844706;29;20576;-70
2023/03/14 08:32:16;;;;;;;2.20;1.80;;;;;;;13.80;65.50;98521.31;4833757;29;20518;-71
2023/03/14 08:34:46;;;;;;;1.90;1.40;;;;;;;13.77;65.96;98527.34;4826515;29;20469;-71
2023/03/14 08:37:19;;;;;;;5.33;1.97;;;;;;;13.75;66.01;98529.50;4841085;29;20484;-71
2023/03/14 08:39:56;;;;;;;3.83;1.40;;;;;;;13.54;66.77;98539.69;4845088;29;20453;-71
2023/03/14 08:42:26;;;;;;;7.40;2.70;;;;;;;13.70;66.95;98543.16;4826044;29;20529;-73
2023/03/14 08:44:58;;;;;;;2.87;1.60;;;;;;;13.61;66.53;98539.34;4844349;29;20828;-71
2023/03/14 08:47:31;;;;;;;2.80;1.43;;;;;;;13.44;66.76;98545.16;4830263;29;20477;-69
2023/03/14 08:50:02;;;;;;;5.30;2.40;;;;;;;13.32;67.46;98542.72;4830577;29;20456;-71
2023/03/14 08:52:32;;;;;;;8.00;3.00;;;;;;;13.30;67.91;98555.78;4841698;29;20837;-72
2023/03/14 08:55:03;;;;;;;7.30;3.93;;;;;;;13.21;69.05;98552.03;4828370;29;20415;-71
2023/03/14 08:57:34;;;;;;;3.73;2.00;;;;;;;13.15;68.74;98553.13;4832880;29;20481;-71
2023/03/14 09:00:10;;;;;;;3.47;1.70;;;;;;;13.14;68.43;98556.09;4845255;29;20457;-71
2023/03/14 09:02:42;;;;;;;3.70;1.43;;;;;;;13.16;68.06;98562.88;4846203;29;20475;-71
2023/03/14 09:05:14;;;;;;;5.27;1.20;;;;;;;13.22;68.09;98548.19;4847757;29;20423;-71
2023/03/14 09:07:45;;;;;;;5.03;1.23;;;;;;;13.21;67.61;98545.78;4834736;29;20477;-71
2023/03/14 09:10:17;;;;;;;6.53;1.30;;;;;;;13.28;66.88;98544.38;4845078;29;20474;-70
2023/03/14 09:13:00;;;;;;;4.13;1.70;;;;;;;13.65;65.83;98540.44;4847255;29;20472;-71
2023/03/14 09:15:30;;;;;;;4.40;1.37;;;;;;;14.03;64.97;98542.41;4842789;29;20994;-70
2023/03/14 09:18:03;;;;;;;3.70;1.27;;;;;;;14.18;63.73;98523.28;4831600;29;20461;-71
2023/03/14 09:20:34;;;;;;;4.50;1.70;;;;;;;14.04;62.79;98516.81;4845662;29;20455;-72
2023/03/14 09:23:05;;;;;;;1.40;1.10;;;;;;;14.02;62.88;98520.94;4830709;29;20464;-71
2023/03/14 09:25:35;;;;;;;3.60;1.67;;;;;;;14.13;62.67;98526.03;4844604;29;20443;-70
2023/03/14 09:28:07;;;;;;;6.03;1.50;;;;;;;14.33;62.09;98520.44;4834274;29;20488;-70
2023/03/14 09:30:41;;;;;;;2.93;2.00;;;;;;;14.55;61.80;98519.22;4826117;29;20462;-71
2023/03/14 09:33:13;;;;;;;3.80;1.10;;;;;;;14.71;60.38;98509.81;4827818;29;20428;-71
2023/03/14 09:35:44;;;;;;;5.60;1.50;;;;;;;14.71;59.95;98517.97;4843837;29;20461;-70
2023/03/14 09:38:16;;;;;;;3.73;1.50;;;;;;;15.02;59.21;98518.47;4823983;29;20548;-70
2023/03/14 09:40:47;;;;;;;2.37;1.10;;;;;;;15.36;57.27;98504.75;4831592;29;20420;-72
2023/03/14 09:43:18;;;;;;;2.83;1.23;;;;;;;15.23;57.21;98512.53;4848613;29;20436;-69
2023/03/14 09:45:53;;;;;;;3.80;1.20;;;;;;;15.41;57.63;98504.69;4845312;29;20461;-72
2023/03/14 09:48:30;;;;;;;5.63;1.90;;;;;;;15.54;56.32;98514.94;4843844;29;20502;-71
2023/03/14 09:51:08;;;;;;;2.70;1.57;;;;;;;15.25;57.03;98511.44;4829298;29;20484;-71
2023/03/14 09:53:52;;;;;;;4.07;1.63;;;;;;;15.18;56.89;98515.31;4841343;29;21004;-71
2023/03/14 09:56:29;;;;;;;3.23;1.37;;;;;;;14.85;57.17;98520.84;4843955;29;20456;-72
2023/03/14 09:59:13;;;;;;;4.87;1.30;;;;;;;14.51;58.35;98520.88;4842946;29;20454;-71
2023/03/14 10:01:45;;;;;;;6.20;1.40;;;;;;;14.47;58.92;98525.28;4827052;29;20971;-71
2023/03/14 10:04:27;;;;;;;4.40;1.10;;;;;;;14.23;58.89;98519.72;4843055;29;20460;-72
2023/03/14 10:06:59;;;;;;;6.10;1.37;;;;;;;14.32;58.98;98513.38;4832991;29;20443;-72
2023/03/14 10:09:37;;;;;;;7.70;1.40;;;;;;;14.38;58.76;98527.75;4846237;29;20490;-72
2023/03/14 10:12:32;;;;;;;5.13;1.40;;;;;;;14.55;58.85;98520.03;4830771;29;20885;-72
2023/03/14 10:15:08;;;;;;;2.47;1.20;;;;;;;14.45;59.14;98532.91;4827895;29;20979;-71
2023/03/14 10:17:44;;;;;;;7.20;2.17;;;;;;;14.34;59.24;98530.22;4839577;29;20484;-71
2023/03/14 10:20:34;;;;;;;6.17;1.10;;;;;;;14.27;59.04;98527.03;4842277;29;20423;-72
2023/03/14 10:23:08;;;;;;;2.40;1.00;;;;;;;14.31;58.73;98525.34;4838482;29;20455;-74
2023/03/14 10:29:10;;;;;;;6.40;1.57;;;;;;;14.47;57.91;98519.84;4838387;29;20479;-73
2023/03/14 10:31:58;;;;;;;6.30;1.50;;;;;;;14.48;58.04;98521.44;4809075;29;20980;-71
2023/03/14 10:34:31;;;;;;;5.00;1.77;;;;;;;14.42;57.92;98522.59;4831768;29;20420;-73
2023/03/14 10:37:22;;;;;;;8.03;1.53;;;;;;;14.18;58.06;98525.19;4841656;29;20464;-72
2023/03/14 10:39:55;;;;;;;5.13;1.73;;;;;;;14.10;58.64;98526.59;4826162;29;20435;-72
2023/03/14 10:42:29;;;;;;;2.30;1.33;;;;;;;14.32;58.72;98527.00;4846618;29;20473;-77
2023/03/14 10:45:03;;;;;;;1.83;1.30;;;;;;;14.31;58.63;98529.97;4843039;29;20451;-70
2023/03/14 10:47:35;;;;;;;4.23;2.20;;;;;;;14.29;59.12;98530.25;4825822;29;20466;-73
2023/03/14 10:50:27;;;;;;;6.03;1.83;;;;;;;14.25;58.10;98529.19;4845478;29;20433;-72
2023/03/14 10:53:05;;;;;;;7.87;2.53;;;;;;;14.28;58.39;98536.78;4825807;29;20557;-72
2023/03/14 10:56:04;;;;;;;3.00;1.27;;;;;;;14.18;58.26;98539.59;4845187;29;20563;-72
2023/03/14 10:58:42;;;;;;;3.40;1.10;;;;;;;14.23;58.35;98525.16;4841404;29;20877;-71
2023/03/14 11:01:36;;;;;;;1.97;1.17;;;;;;;14.31;58.03;98530.78;4847026;29;20454;-71
2023/03/14 11:04:16;;;;;;;3.43;1.30;;;;;;;14.47;57.99;98530.72;4835572;29;21668;-71
2023/03/14 11:06:52;;;;;;;4.00;1.50;;;;;;;14.22;57.81;98520.81;4833164;29;20831;-72
2023/03/14 11:09:32;;;;;;;4.90;1.33;;;;;;;14.37;58.26;98528.06;4845150;29;20484;-72
2023/03/14 11:12:17;;;;;;;2.83;1.07;;;;;;;14.23;58.12;98528.66;4849711;29;20522;-72
2023/03/14 11:14:50;;;;;;;3.87;1.30;;;;;;;14.12;58.83;98524.41;4836265;29;20546;-72
2023/03/14 11:17:30;;;;;;;3.57;1.47;;;;;;;14.16;58.72;98525.47;4832906;29;20467;-72
2023/03/14 11:20:15;;;;;;;3.50;1.13;;;;;;;14.19;58.56;98519.44;4852639;29;20424;-73
2023/03/14 11:22:52;;;;;;;4.03;1.47;;;;;;;14.10;58.91;98521.16;4840155;29;20603;-72
2023/03/14 11:25:41;;;;;;;2.90;1.17;;;;;;;14.22;58.18;98524.34;4824704;29;20444;-74
2023/03/14 11:28:19;;;;;;;2.17;1.30;;;;;;;14.08;58.81;98525.25;4840450;29;20864;-72
2023/03/14 11:30:54;;;;;;;3.47;1.33;;;;;;;14.33;58.66;98520.44;4842047;29;20431;-73
2023/03/14 11:33:33;;;;;;;3.00;1.30;;;;;;;14.40;58.31;98520.16;4857936;29;20419;-73
2023/03/14 11:36:08;;;;;;;4.90;1.77;;;;;;;14.46;57.86;98518.19;4851852;29;20429;-72
2023/03/14 11:38:47;;;;;;;2.33;1.20;;;;;;;14.43;57.97;98519.56;4842112;29;20583;-72
2023/03/14 11:41:24;;;;;;;2.27;1.30;;;;;;;14.59;57.90;98512.09;4838634;29;20459;-72
2023/03/14 11:43:57;;;;;;;4.40;1.57;;;;;;;14.55;57.99;98511.03;4838077;29;20521;-73
2023/03/14 11:46:33;;;;;;;2.87;1.13;;;;;;;14.44;58.67;98517.66;4838815;29;20438;-71
2023/03/14 11:49:08;;;;;;;1.70;0.90;;;;;;;14.35;59.13;98512.81;4824569;29;20841;-72
2023/03/14 11:51:43;;;;;;;1.50;1.00;;;;;;;14.32;59.70;98507.94;4841822;29;20438;-72
2023/03/14 11:54:21;;;;;;;2.70;0.90;;;;;;;14.13;60.73;98509.72;4827564;29;20801;-73
2023/03/14 11:56:58;;;;;;;6.13;1.43;;;;;;;14.11;60.92;98517.34;4837520;29;20463;-72
2023/03/14 11:59:34;;;;;;;2.23;1.07;;;;;;;14.21;61.04;98516.44;4840161;29;20480;-74
2023/03/14 12:02:14;;;;;;;4.60;1.00;;;;;;;14.40;60.70;98509.25;4824982;29;20444;-71
2023/03/14 12:04:55;;;;;;;2.97;1.13;;;;;;;14.52;60.37;98515.16;4824879;29;20919;-71
2023/03/14 12:07:36;;;;;;;1.33;0.90;;;;;;;14.29;61.37;98510.41;4825778;29;20582;-71
2023/03/14 12:10:09;;;;;;;2.30;1.50;;;;;;;14.16;62.32;98497.44;4847905;29;20810;-73
2023/03/14 12:12:44;;;;;;;4.37;1.40;;;;;;;14.25;62.09;98507.44;4839814;29;20442;-73
2023/03/14 12:15:22;;;;;;;1.87;1.20;;;;;;;14.46;62.96;98508.13;4827852;29;20892;-72
2023/03/14 12:17:56;;;;;;;1.77;1.10;;;;;;;14.46;62.11;98504.59;4828929;29;20852;-72
2023/03/14 12:20:27;;;;;;;1.87;0.80;;;;;;;14.45;62.64;98511.13;4826488;29;20457;-73
2023/03/14 12:23:04;;;;;;;3.47;1.07;;;;;;;14.26;62.08;98503.63;4837058;29;21012;-74
2023/03/14 12:25:37;;;;;;;3.00;1.17;;;;;;;14.41;62.02;98494.56;4822383;29;20435;-71
2023/03/14 12:28:21;;;;;;;3.13;1.17;;;;;;;14.64;61.53;98495.72;4824632;29;20447;-71